Flag for USA

Past Weather in 57°02'49.8"N, 135°20'01.3"W, USA — Yesterday and Last 2 Weeks

Currently: 36 °F. Light snow. Broken clouds. (Weather station: Sitka Airport, USA). See more current weather

Past Weather in 57°02'49.8"N, 135°20'01.3"W — Graph

°F

57°02'49.8"N, 135°20'01.3"W Temperature Yesterday

Maximum temperature yesterday: 39 °F (at 5:53 am)
Minimum temperature yesterday: 34 °F (at 4:18 pm)
Average temperature yesterday: 36 °F

High & Low Weather Summary for the Past Weeks

 TemperatureHumidityPressure
High48 °F (Nov 25, 4:27 am)97% (Nov 23, 7:59 am)30.08 "Hg (Nov 23, 7:59 am)
Low28 °F (Nov 19, 10:53 pm)53% (Nov 17, 11:53 pm)28.92 "Hg (Nov 25, 6:02 am)
Average38 °F80%29.62 "Hg
* Reported Nov 13 10:00 am — Nov 28 10:53 am, 57°02'49.8"N, 135°20'01.3"W. Weather by CustomWeather, © 2021

Note: Actual official high and low records may vary slightly from our data, if they occured in-between our weather recording intervals... More about our weather records

57°02'49.8"N, 135°20'01.3"W Weather History for the Previous 24 Hours

Scroll right to see more
 ConditionsComfort  
Time TempWeatherWind HumidityBarometerVisibility
10:53 am
Sun, Nov 28
36 °FBroken clouds.14 mph62%29.69 "Hg10 mi
10:33 am35 °FPartly sunny.16 mph72%29.68 "Hg9 mi
9:53 am32 °FBroken clouds.6 mph85%29.65 "Hg8 mi
9:00 am33 °FLight snow. Cloudy.3 mph85%29.63 "Hg6 mi
7:53 am35 °FLight snow. Overcast.9 mph78%29.58 "Hg6 mi
7:17 am34 °FLight snow. Mostly cloudy.20 mph82%29.56 "Hg3 mi
6:53 am34 °FLight snow. Low clouds.7 mph82%29.54 "Hg3 mi
5:53 am33 °FMostly cloudy.5 mph82%29.51 "Hg10 mi
4:53 am33 °FPartly cloudy.8 mph88%29.50 "Hg8 mi
4:38 am33 °FLight snow. Fog.10 mph88%29.50 "Hg4 mi
4:02 am35 °FLight snow. Fog.14 mph85%29.48 "Hg1 mi
3:33 am35 °FLight snow. Fog.9 mph85%29.47 "Hg3 mi
3:17 am35 °FLight snow. Fog.7 mph88%29.47 "Hg4 mi
2:53 am35 °FLight snow. Fog.5 mph88%29.46 "Hg2 mi
2:27 am35 °FLight snow. Fog.7 mph88%29.46 "Hg4 mi
2:15 am35 °FLight snow. Fog.7 mph88%29.46 "Hg2 mi
1:58 am35 °FLight snow. Fog.17 mph85%29.45 "Hg1 mi
12:53 am37 °FOvercast.9 mph86%29.42 "Hg8 mi
12:34 am37 °FLight rain. Mostly cloudy.12 mph86%29.42 "Hg8 mi
11:53 pm
Sat, Nov 27
37 °FLight rain. Mostly cloudy.13 mph86%29.40 "Hg7 mi
11:38 pm35 °FLight rain. Fog.N/A88%29.39 "Hg5 mi
11:00 pm35 °FLight snow. Fog.3 mph92%29.36 "Hg5 mi
10:35 pm35 °FLight rain. Mostly cloudy.7 mph88%29.34 "Hg8 mi
9:53 pm35 °FMostly cloudy.6 mph88%29.32 "Hg10 mi
9:05 pm34 °FOvercast.6 mph92%29.29 "Hg10 mi
8:53 pm34 °FPassing clouds.6 mph92%29.28 "Hg10 mi
8:18 pm35 °FMostly cloudy.3 mph88%29.27 "Hg7 mi
7:53 pm34 °FOvercast.3 mph88%29.25 "Hg9 mi
7:20 pm37 °FPassing clouds.6 mph82%29.23 "Hg10 mi
6:53 pm36 °FMostly cloudy.6 mph89%29.20 "Hg10 mi
5:53 pm36 °FMostly cloudy.3 mph89%29.17 "Hg10 mi
5:31 pm35 °FLight rain. Mostly cloudy.No wind92%29.16 "Hg9 mi
4:53 pm35 °FLight rain. Fog.5 mph88%29.15 "Hg4 mi
4:18 pm34 °FLight rain. Fog.No wind92%29.14 "Hg4 mi
3:53 pm35 °FLight rain. Fog.5 mph88%29.13 "Hg6 mi
2:53 pm35 °FLight rain. Fog.5 mph88%29.14 "Hg3 mi
1:53 pm35 °FLight snow. Fog.6 mph88%29.15 "Hg4 mi
1:36 pm35 °FLight snow. Fog.7 mph88%29.16 "Hg3 mi
12:58 pm35 °FLight snow. Fog.6 mph88%29.17 "Hg2 mi
12:33 pm36 °FLight snow. Fog.5 mph85%29.19 "Hg2 mi
Weather by CustomWeather, © 2021

See weather overview